Time;durP1;ratioP1;P1;durP2;ratioP2;P2;SDS_P1;SDS_P2;PMS_P1;PMS_P2;Temp;Humidity;BMP_temperature;BMP_pressure;BME280_temperature;BME280_humidity;BME280_pressure;Samples;Min_cycle;Max_cycle;Signal;HPM_P1;HPM_P2
2022/06/08 00:01:02;;;;;;;33.05;29.75;;;;;;;14.91;93.03;101006.47;4990771;28;20105;-80
2022/06/08 00:03:36;;;;;;;32.40;29.08;;;;;;;14.90;92.82;100999.41;4991302;28;20034;-80
2022/06/08 00:06:02;;;;;;;33.38;30.15;;;;;;;14.89;92.68;101000.38;4970982;28;20391;-81
2022/06/08 00:08:27;;;;;;;33.00;29.70;;;;;;;14.86;92.80;100996.19;4985515;28;20034;-80
2022/06/08 00:10:53;;;;;;;33.97;30.50;;;;;;;14.82;92.86;100996.59;4993347;28;20050;-79
2022/06/08 00:13:18;;;;;;;34.45;30.95;;;;;;;14.82;93.06;100989.41;4986378;28;20022;-79
2022/06/08 00:15:43;;;;;;;34.38;30.75;;;;;;;14.76;93.51;100992.66;4995861;28;20497;-79
2022/06/08 00:18:10;;;;;;;33.75;30.35;;;;;;;14.77;93.52;100986.31;4985485;28;20249;-79
2022/06/08 00:20:36;;;;;;;35.03;31.38;;;;;;;14.73;93.44;100984.94;4997738;28;20152;-80
2022/06/08 00:23:02;;;;;;;35.58;31.90;;;;;;;14.73;93.97;100984.94;5003250;28;20022;-79
2022/06/08 00:25:28;;;;;;;35.42;31.83;;;;;;;14.70;94.35;100970.00;5003440;28;20078;-79
2022/06/08 00:27:53;;;;;;;35.65;32.08;;;;;;;14.70;93.65;100977.19;4987480;28;20029;-79
2022/06/08 00:30:19;;;;;;;35.22;31.70;;;;;;;14.67;94.18;100974.78;5007206;28;20151;-79
2022/06/08 00:32:44;;;;;;;33.88;30.45;;;;;;;14.67;93.91;100974.78;4982595;28;20039;-80
2022/06/08 00:35:11;;;;;;;35.38;31.88;;;;;;;14.63;93.67;100968.88;4978858;28;20022;-80
2022/06/08 00:37:36;;;;;;;34.65;31.13;;;;;;;14.64;93.69;100969.72;4997018;28;20061;-80
2022/06/08 00:40:02;;;;;;;34.75;31.02;;;;;;;14.63;93.32;100968.88;4996499;28;20101;-80
2022/06/08 00:42:28;;;;;;;33.50;30.10;;;;;;;14.59;93.50;100968.34;4995904;28;20034;-79
2022/06/08 00:44:58;;;;;;;34.42;30.92;;;;;;;14.55;93.10;100966.88;4996121;28;20018;-80
2022/06/08 00:47:31;;;;;;;33.45;30.05;;;;;;;14.54;92.74;100962.53;4996106;28;20481;-80
2022/06/08 00:50:03;;;;;;;34.55;30.88;;;;;;;14.51;93.24;100962.81;4995789;28;20047;-79
2022/06/08 00:52:29;;;;;;;33.35;29.85;;;;;;;14.48;93.38;100959.56;4996125;28;20056;-79
2022/06/08 00:55:00;;;;;;;34.53;30.95;;;;;;;14.47;93.57;100953.41;4995783;28;20030;-79
2022/06/08 00:57:33;;;;;;;32.90;29.60;;;;;;;14.46;93.80;100950.88;4994688;28;20041;-79
2022/06/08 01:00:27;;;;;;;33.35;29.85;;;;;;;14.48;92.86;100949.72;4996131;28;20506;-80
2022/06/08 01:02:53;;;;;;;33.92;30.25;;;;;;;14.38;93.02;100946.22;4994058;28;20035;-79
2022/06/08 01:05:26;;;;;;;32.10;28.88;;;;;;;14.37;92.87;100945.38;4995405;28;20033;-80
2022/06/08 01:07:54;;;;;;;33.90;30.30;;;;;;;14.32;92.87;100938.75;4977554;28;20041;-79
2022/06/08 01:10:34;;;;;;;33.33;29.23;;;;;;;14.33;93.01;100943.94;4993814;28;20038;-80
2022/06/08 01:13:04;;;;;;;33.72;30.20;;;;;;;14.27;92.88;100930.31;4986632;28;20038;-80
2022/06/08 01:15:32;;;;;;;32.45;29.15;;;;;;;14.25;92.36;100935.78;4995012;28;20382;-79
2022/06/08 01:17:57;;;;;;;35.83;28.58;;;;;;;14.21;93.57;100926.38;4994840;28;20050;-79
2022/06/08 01:20:23;;;;;;;32.38;28.98;;;;;;;14.21;93.13;100919.19;4994408;28;20073;-80
2022/06/08 01:22:51;;;;;;;31.67;28.38;;;;;;;14.18;92.35;100915.97;4983906;28;20538;-80
2022/06/08 01:25:16;;;;;;;31.35;27.95;;;;;;;14.15;92.59;100911.72;4993075;28;20041;-79
2022/06/08 01:27:54;;;;;;;31.60;28.17;;;;;;;14.15;92.93;100906.38;4995098;28;20027;-80
2022/06/08 01:30:27;;;;;;;31.95;28.45;;;;;;;14.12;92.78;100914.72;4981362;28;20026;-79
2022/06/08 01:33:10;;;;;;;33.22;28.83;;;;;;;14.13;92.42;100904.84;4994750;28;20030;-79
2022/06/08 01:35:53;;;;;;;32.90;29.27;;;;;;;14.09;93.00;100903.44;4988089;28;20049;-80
2022/06/08 01:38:56;;;;;;;32.63;28.95;;;;;;;14.05;93.46;100894.84;4995143;28;20030;-79
2022/06/08 01:42:03;;;;;;;30.75;27.15;;;;;;;14.01;92.72;100894.28;4985621;28;20030;-80
2022/06/08 01:48:01;;;;;;;29.65;26.55;;;;;;;13.99;93.04;100888.25;4994731;28;20450;-80
2022/06/08 01:50:45;;;;;;;31.27;27.17;;;;;;;14.00;92.86;100886.41;4994464;28;20030;-80
2022/06/08 01:53:23;;;;;;;28.75;25.65;;;;;;;13.94;93.32;100882.50;4994796;28;20027;-80
2022/06/08 01:55:51;;;;;;;28.02;24.13;;;;;;;13.90;93.50;100875.72;4994321;28;20026;-79
2022/06/08 01:58:41;;;;;;;28.63;25.53;;;;;;;13.88;95.08;100865.19;4994271;28;20033;-80
2022/06/08 02:01:16;;;;;;;26.92;24.00;;;;;;;13.90;94.18;100873.06;4987899;28;20446;-80
2022/06/08 02:04:07;;;;;;;27.67;23.50;;;;;;;13.91;92.90;100868.56;4994799;28;20033;-79
2022/06/08 02:06:35;;;;;;;28.48;22.98;;;;;;;13.84;93.50;100862.94;4982179;28;20069;-79
2022/06/08 02:09:07;;;;;;;25.73;22.98;;;;;;;13.86;94.35;100852.97;4994069;28;20034;-79
2022/06/08 02:11:39;;;;;;;26.75;22.42;;;;;;;13.82;94.77;100847.06;4981387;28;20022;-80
2022/06/08 02:14:18;;;;;;;25.83;20.95;;;;;;;13.82;94.13;100847.06;4994468;28;20034;-80
2022/06/08 02:16:53;;;;;;;23.95;21.35;;;;;;;13.82;93.91;100841.72;4993695;28;20109;-81
2022/06/08 02:19:29;;;;;;;22.42;20.08;;;;;;;13.79;93.60;100841.13;4994550;28;20109;-79
2022/06/08 02:22:10;;;;;;;21.63;19.15;;;;;;;13.78;93.84;100828.78;4980831;28;20085;-81
2022/06/08 02:24:44;;;;;;;22.25;19.23;;;;;;;13.75;94.21;100826.38;4976120;28;20046;-79
2022/06/08 02:27:19;;;;;;;21.02;18.83;;;;;;;13.76;93.81;100823.59;5058739;23;20133;-57
2022/06/08 02:29:52;;;;;;;22.40;18.67;;;;;;;13.73;94.34;100823.03;5008449;28;20124;-58
2022/06/08 02:35:25;;;;;;;23.60;19.30;;;;;;;13.71;94.70;100817.00;5005947;28;20448;-58
2022/06/08 02:37:54;;;;;;;20.63;18.42;;;;;;;13.68;94.81;100818.09;5003474;28;20116;-59
2022/06/08 02:40:25;;;;;;;19.50;17.45;;;;;;;13.65;93.57;100819.19;5012370;28;20104;-58
2022/06/08 02:42:55;;;;;;;20.75;18.52;;;;;;;13.62;94.40;100813.31;5012138;28;20083;-58
2022/06/08 02:45:25;;;;;;;21.38;17.08;;;;;;;13.61;94.01;100811.63;5001638;28;20038;-58
2022/06/08 02:47:55;;;;;;;20.80;17.65;;;;;;;13.60;94.82;100812.59;4993692;28;20030;-58
2022/06/08 02:50:24;;;;;;;22.15;17.58;;;;;;;13.59;94.74;100805.56;5003700;28;20060;-59
2022/06/08 02:52:52;;;;;;;18.73;16.67;;;;;;;13.55;94.09;100805.00;4994379;28;20026;-58
2022/06/08 02:55:37;;;;;;;18.90;16.90;;;;;;;13.53;94.42;100804.31;5011792;28;20026;-58
2022/06/08 02:58:14;;;;;;;20.13;17.58;;;;;;;13.49;94.80;100792.22;5011423;28;20106;-58
2022/06/08 03:00:48;;;;;;;18.70;16.35;;;;;;;13.45;94.38;100794.31;5011388;28;20122;-58
2022/06/08 03:03:21;;;;;;;19.23;16.65;;;;;;;13.43;94.87;100790.09;4998361;28;20396;-58
2022/06/08 03:05:59;;;;;;;19.05;15.82;;;;;;;13.42;94.80;100789.28;5011335;28;20033;-56
2022/06/08 03:08:30;;;;;;;17.88;15.40;;;;;;;13.43;95.19;100785.59;5011164;28;20088;-58
2022/06/08 03:11:00;;;;;;;17.55;15.63;;;;;;;13.41;94.98;100782.25;4994955;28;20030;-59
2022/06/08 03:13:30;;;;;;;17.17;15.18;;;;;;;13.40;95.36;100785.88;5011571;28;20490;-58
2022/06/08 03:15:58;;;;;;;22.55;14.77;;;;;;;13.37;95.49;100788.81;5012137;28;20014;-58
2022/06/08 03:18:24;;;;;;;16.30;14.05;;;;;;;13.37;95.24;100783.47;5011234;28;20100;-58
2022/06/08 03:20:52;;;;;;;15.82;14.18;;;;;;;13.31;95.58;100782.19;5011944;28;20069;-58
2022/06/08 03:23:18;;;;;;;16.48;13.70;;;;;;;13.30;95.70;100784.97;5011244;28;20032;-59
2022/06/08 03:25:43;;;;;;;16.17;13.57;;;;;;;13.28;95.82;100787.78;5011513;28;20037;-58
2022/06/08 03:28:12;;;;;;;17.02;13.85;;;;;;;13.27;96.76;100788.78;5011827;28;20026;-59
2022/06/08 03:30:38;;;;;;;14.83;13.20;;;;;;;13.28;96.83;100784.28;4993485;28;20049;-58
2022/06/08 03:33:03;;;;;;;15.27;13.52;;;;;;;13.25;96.88;100785.38;4992087;28;20042;-59
2022/06/08 03:35:28;;;;;;;16.00;13.23;;;;;;;13.23;96.82;100781.19;4995213;28;20385;-58
2022/06/08 03:37:54;;;;;;;14.93;13.15;;;;;;;13.25;96.94;100785.38;4992018;28;20118;-58
2022/06/08 03:40:19;;;;;;;14.85;11.77;;;;;;;13.23;96.93;100789.19;4991105;28;20026;-58
2022/06/08 03:42:44;;;;;;;16.05;12.18;;;;;;;13.25;97.19;100787.22;4990155;28;20030;-58
2022/06/08 03:45:10;;;;;;;14.60;12.25;;;;;;;13.26;97.43;100796.91;4992841;28;20058;-58
2022/06/08 03:47:41;;;;;;;16.73;11.65;;;;;;;13.28;97.27;100787.78;4993999;28;20048;-58
2022/06/08 03:50:11;;;;;;;14.55;11.63;;;;;;;13.29;97.22;100783.31;4993782;28;20022;-58
2022/06/08 03:52:39;;;;;;;15.20;11.80;;;;;;;13.31;98.08;100787.50;4993410;28;20057;-59
2022/06/08 03:55:06;;;;;;;14.48;12.02;;;;;;;13.34;97.16;100794.44;4993366;28;20567;-58
2022/06/08 03:57:32;;;;;;;12.75;10.73;;;;;;;13.36;97.39;100789.81;4995180;28;20030;-59
2022/06/08 04:00:00;;;;;;;12.68;10.90;;;;;;;13.38;97.72;100793.19;4995657;28;20113;-59
2022/06/08 04:02:27;;;;;;;12.48;11.18;;;;;;;13.40;97.48;100783.22;4995668;28;20019;-59
2022/06/08 04:04:52;;;;;;;12.55;9.73;;;;;;;13.45;97.60;100785.47;4984388;28;20037;-59
2022/06/08 04:07:18;;;;;;;12.43;9.65;;;;;;;13.47;97.78;100781.69;5007798;28;20050;-59
2022/06/08 04:09:43;;;;;;;12.30;9.70;;;;;;;13.49;98.05;100776.22;5015075;28;20037;-59
2022/06/08 04:12:10;;;;;;;12.13;10.18;;;;;;;13.48;97.51;100775.38;4996474;28;20034;-59
2022/06/08 04:14:36;;;;;;;13.00;10.40;;;;;;;13.53;97.67;100772.28;4992392;28;20030;-58
2022/06/08 04:17:01;;;;;;;11.82;9.98;;;;;;;13.55;97.97;100767.66;4995003;28;20031;-58
2022/06/08 04:19:28;;;;;;;11.23;8.98;;;;;;;13.58;98.06;100771.88;4995199;28;20033;-59
2022/06/08 04:21:53;;;;;;;11.65;8.95;;;;;;;13.58;98.30;100763.88;4995153;28;20026;-59
2022/06/08 04:24:20;;;;;;;9.65;8.52;;;;;;;13.58;98.37;100759.38;5008473;28;20519;-59
2022/06/08 04:26:45;;;;;;;11.80;9.07;;;;;;;13.60;98.28;100760.06;5014593;28;20049;-59
2022/06/08 04:29:11;;;;;;;10.90;8.57;;;;;;;13.62;98.43;100760.78;5004942;28;20032;-58
2022/06/08 04:31:37;;;;;;;9.13;7.80;;;;;;;13.65;98.08;100765.00;4995130;28;20038;-59
2022/06/08 04:34:05;;;;;;;10.02;8.88;;;;;;;13.68;98.33;100762.03;5000054;28;20491;-59
2022/06/08 04:36:31;;;;;;;10.63;8.37;;;;;;;13.71;98.56;100751.09;4992042;28;20114;-58
2022/06/08 04:38:57;;;;;;;9.85;7.80;;;;;;;13.74;98.49;100761.50;4992148;28;20316;-59
2022/06/08 04:41:23;;;;;;;9.75;8.00;;;;;;;13.77;98.23;100755.88;5004547;28;20037;-59
2022/06/08 04:43:48;;;;;;;8.80;7.88;;;;;;;13.80;98.04;100750.22;5012963;28;20030;-58
2022/06/08 04:46:16;;;;;;;10.50;7.93;;;;;;;13.86;98.31;100751.50;4983390;28;20057;-59
2022/06/08 04:48:46;;;;;;;9.48;7.70;;;;;;;13.88;98.33;100742.38;4994573;28;20030;-59
2022/06/08 04:51:13;;;;;;;8.07;7.28;;;;;;;13.95;98.54;100739.13;4994729;28;20034;-59
2022/06/08 04:53:41;;;;;;;9.65;7.93;;;;;;;13.99;98.85;100738.72;4995263;28;20042;-60
2022/06/08 04:56:07;;;;;;;10.10;7.22;;;;;;;14.02;98.45;100730.41;4986475;28;20077;-58
2022/06/08 04:58:33;;;;;;;7.03;6.18;;;;;;;14.06;98.15;100734.47;4994819;28;20125;-59
2022/06/08 05:00:58;;;;;;;9.93;6.97;;;;;;;14.11;98.03;100733.22;4983691;28;20105;-58
2022/06/08 05:03:23;;;;;;;6.43;5.82;;;;;;;14.16;97.14;100737.13;4995030;28;20080;-58
2022/06/08 05:05:49;;;;;;;7.25;6.22;;;;;;;14.18;97.12;100732.47;4995391;28;20113;-58
2022/06/08 05:08:17;;;;;;;7.25;6.32;;;;;;;14.19;97.08;100731.50;5014550;28;20022;-58
2022/06/08 05:10:43;;;;;;;7.20;5.87;;;;;;;14.22;97.13;100739.25;4999370;28;20034;-58
2022/06/08 05:13:11;;;;;;;9.13;6.28;;;;;;;14.24;96.75;100726.56;4989287;28;20160;-58
2022/06/08 05:15:39;;;;;;;7.50;6.03;;;;;;;14.27;96.85;100721.91;4985971;28;20028;-58
2022/06/08 05:18:06;;;;;;;6.40;5.80;;;;;;;14.29;96.29;100715.47;4994655;28;20129;-59
2022/06/08 05:20:33;;;;;;;9.15;6.03;;;;;;;14.30;96.51;100714.47;4993974;28;20039;-59
2022/06/08 05:23:00;;;;;;;8.20;5.90;;;;;;;14.33;96.55;100716.84;4993873;28;20038;-58
2022/06/08 05:25:33;;;;;;;8.25;5.78;;;;;;;14.38;96.64;100708.41;4994249;28;20023;-58
2022/06/08 05:27:59;;;;;;;8.93;5.43;;;;;;;14.41;96.84;100708.13;4995095;28;20501;-59
2022/06/08 05:30:25;;;;;;;6.57;5.85;;;;;;;14.45;96.62;100704.16;5000652;28;20026;-58
2022/06/08 05:32:51;;;;;;;6.68;6.05;;;;;;;14.50;96.75;100698.38;4994194;28;20030;-59
2022/06/08 05:35:17;;;;;;;8.13;5.85;;;;;;;14.53;96.80;100698.91;5009135;28;20022;-59
2022/06/08 05:37:43;;;;;;;7.22;6.22;;;;;;;14.57;96.72;100689.63;5007136;28;20038;-57
2022/06/08 05:40:09;;;;;;;7.57;5.93;;;;;;;14.60;96.32;100689.38;4993051;28;20026;-59
2022/06/08 05:42:35;;;;;;;6.47;5.85;;;;;;;14.62;95.86;100686.53;4992792;28;20111;-59
2022/06/08 05:45:00;;;;;;;8.65;5.75;;;;;;;14.65;96.09;100682.72;4993441;28;20093;-58
2022/06/08 05:47:26;;;;;;;6.20;5.60;;;;;;;14.69;95.76;100678.75;4993798;28;20469;-59
2022/06/08 05:49:51;;;;;;;7.88;5.82;;;;;;;14.70;95.54;100670.59;4993558;28;20023;-58
2022/06/08 05:52:17;;;;;;;10.13;6.18;;;;;;;14.74;95.48;100677.34;4993242;28;20513;-59
2022/06/08 05:54:43;;;;;;;9.10;5.50;;;;;;;14.79;95.44;100668.88;4993292;28;20030;-57
2022/06/08 05:57:09;;;;;;;7.47;6.15;;;;;;;14.82;95.62;100659.69;4973881;28;20470;-59
2022/06/08 05:59:34;;;;;;;10.40;6.35;;;;;;;14.87;95.22;100665.44;4986070;28;20019;-59
2022/06/08 06:01:59;;;;;;;8.38;5.47;;;;;;;14.91;94.91;100654.28;4993208;28;20041;-59
2022/06/08 06:04:25;;;;;;;7.45;5.43;;;;;;;14.95;94.76;100661.03;4973133;28;20117;-58
2022/06/08 06:06:50;;;;;;;5.75;5.25;;;;;;;14.98;94.44;100659.88;4992421;28;20032;-57
2022/06/08 06:09:18;;;;;;;5.47;4.97;;;;;;;15.01;94.04;100664.09;4993165;28;20061;-57
2022/06/08 06:11:44;;;;;;;7.75;5.50;;;;;;;15.05;94.71;100660.13;4993087;28;20027;-58
2022/06/08 06:14:10;;;;;;;5.72;5.15;;;;;;;15.06;94.47;100667.16;4992546;28;20035;-59
2022/06/08 06:16:36;;;;;;;7.55;5.55;;;;;;;15.14;94.96;100672.59;4981171;28;20065;-59
2022/06/08 06:19:01;;;;;;;8.10;5.72;;;;;;;15.18;95.33;100671.28;4981884;28;20039;-59
2022/06/08 06:21:26;;;;;;;7.40;5.68;;;;;;;15.23;94.32;100670.84;4980571;28;20334;-59
2022/06/08 06:23:53;;;;;;;7.68;5.13;;;;;;;15.25;94.09;100669.66;4985009;28;20071;-59
2022/06/08 06:26:19;;;;;;;7.75;5.50;;;;;;;15.28;94.80;100672.03;4978728;28;20148;-58
2022/06/08 06:28:44;;;;;;;7.95;5.70;;;;;;;15.33;94.89;100676.94;4988619;28;20121;-59
2022/06/08 06:31:17;;;;;;;9.18;5.38;;;;;;;15.36;94.24;100672.13;4990740;28;20034;-59
2022/06/08 06:33:43;;;;;;;6.43;5.20;;;;;;;15.39;94.25;100673.66;4999493;28;20039;-59
2022/06/08 06:36:08;;;;;;;8.80;5.22;;;;;;;15.43;94.50;100671.53;4998805;28;20073;-59
2022/06/08 06:38:33;;;;;;;6.53;5.28;;;;;;;15.45;93.84;100664.16;4998801;28;20441;-58
2022/06/08 06:40:59;;;;;;;6.95;5.30;;;;;;;15.51;94.95;100668.91;4996326;28;20029;-59
2022/06/08 06:43:24;;;;;;;9.15;4.97;;;;;;;15.57;94.51;100664.78;4995861;28;20022;-59
2022/06/08 06:45:50;;;;;;;5.15;4.60;;;;;;;15.68;93.36;100659.19;4993795;28;20050;-58
2022/06/08 06:48:15;;;;;;;12.00;5.38;;;;;;;15.88;94.80;100658.00;5000106;28;20117;-58
2022/06/08 06:50:40;;;;;;;7.57;5.13;;;;;;;16.04;93.43;100656.47;4974132;28;20042;-58
2022/06/08 06:53:06;;;;;;;9.10;4.85;;;;;;;16.29;93.05;100652.09;4992274;28;20761;-60
2022/06/08 06:55:56;;;;;;;7.45;4.70;;;;;;;16.53;92.62;100647.84;4987688;28;20049;-57
2022/06/08 06:58:22;;;;;;;6.15;4.80;;;;;;;16.87;91.17;100641.59;4988412;28;20441;-59
2022/06/08 07:00:48;;;;;;;5.07;4.28;;;;;;;17.14;90.32;100651.22;4990490;28;20111;-59
2022/06/08 07:03:14;;;;;;;7.85;4.82;;;;;;;17.27;88.26;100648.03;4992629;28;20030;-59
2022/06/08 07:05:39;;;;;;;8.82;4.80;;;;;;;17.51;88.47;100645.38;4992115;28;20053;-59
2022/06/08 07:08:06;;;;;;;10.27;4.20;;;;;;;17.76;86.70;100650.75;4986246;28;20038;-59
2022/06/08 07:10:32;;;;;;;7.25;3.78;;;;;;;18.06;85.02;100637.63;4985265;28;20047;-59
2022/06/08 07:12:58;;;;;;;6.80;3.45;;;;;;;18.35;84.83;100638.88;4990727;28;20049;-60
2022/06/08 07:15:23;;;;;;;7.68;3.45;;;;;;;18.68;80.59;100634.19;4991182;28;20128;-59
2022/06/08 07:17:50;;;;;;;9.27;3.05;;;;;;;18.83;80.95;100637.84;4992459;28;20107;-58
2022/06/08 07:20:18;;;;;;;4.80;2.78;;;;;;;18.97;81.35;100633.56;4994796;28;20050;-58
2022/06/08 07:22:44;;;;;;;10.03;3.73;;;;;;;19.15;77.04;100630.59;4995900;28;20030;-60
2022/06/08 07:25:12;;;;;;;4.78;2.70;;;;;;;19.34;78.69;100629.25;5001926;28;20353;-59
2022/06/08 07:27:38;;;;;;;6.43;2.85;;;;;;;19.41;75.86;100629.38;5003293;28;20401;-59
2022/06/08 07:30:06;;;;;;;4.63;2.78;;;;;;;19.54;78.49;100632.28;4977611;28;20134;-59
2022/06/08 07:32:31;;;;;;;6.40;3.00;;;;;;;19.68;74.88;100630.66;5006045;28;20033;-59
2022/06/08 07:34:57;;;;;;;8.88;3.05;;;;;;;19.80;76.13;100623.03;4997601;28;20053;-58
2022/06/08 07:37:24;;;;;;;8.07;2.75;;;;;;;19.93;74.39;100617.81;4995515;28;20035;-59
2022/06/08 07:39:50;;;;;;;7.53;2.92;;;;;;;19.95;74.52;100631.94;4991736;28;20043;-59
2022/06/08 07:42:16;;;;;;;8.10;3.30;;;;;;;20.17;73.43;100618.56;4995616;28;20390;-59
2022/06/08 07:44:41;;;;;;;8.10;2.88;;;;;;;20.33;71.64;100622.94;4995561;28;20121;-58
2022/06/08 07:47:06;;;;;;;7.30;2.70;;;;;;;20.44;72.64;100627.03;4982276;28;20505;-59
2022/06/08 07:49:39;;;;;;;8.48;2.78;;;;;;;20.70;71.16;100631.94;4995826;28;20026;-57
2022/06/08 07:52:05;;;;;;;7.45;2.70;;;;;;;20.72;70.83;100632.59;5006934;28;20041;-58
2022/06/08 07:54:31;;;;;;;6.72;2.88;;;;;;;20.75;69.07;100632.22;4997804;28;20122;-57
2022/06/08 07:56:57;;;;;;;4.15;2.40;;;;;;;20.78;69.97;100631.81;5015409;28;20030;-58
2022/06/08 07:59:26;;;;;;;7.70;2.80;;;;;;;20.66;68.63;100644.13;5010409;28;20030;-58
2022/06/08 08:01:52;;;;;;;8.13;3.00;;;;;;;20.63;69.23;100634.56;4995817;28;20030;-59
2022/06/08 08:04:18;;;;;;;6.75;3.13;;;;;;;20.63;69.01;100641.81;4995672;28;20092;-58
2022/06/08 08:06:43;;;;;;;10.15;2.88;;;;;;;20.55;69.41;100636.47;4995327;28;20192;-59
2022/06/08 08:09:14;;;;;;;5.30;2.60;;;;;;;20.57;70.78;100637.13;4995882;28;20049;-59
2022/06/08 08:11:40;;;;;;;6.40;2.72;;;;;;;20.55;68.58;100639.19;4977226;28;20041;-59
2022/06/08 08:14:06;;;;;;;5.60;3.15;;;;;;;20.51;68.92;100642.25;4974111;28;20394;-59
2022/06/08 08:16:32;;;;;;;7.03;2.90;;;;;;;20.43;70.14;100638.81;4980011;28;20128;-59
2022/06/08 08:18:58;;;;;;;6.72;2.65;;;;;;;20.31;68.97;100627.69;4987596;28;20033;-58
2022/06/08 08:21:24;;;;;;;10.70;3.25;;;;;;;20.17;68.39;100634.75;4988123;28;20508;-60
2022/06/08 08:23:49;;;;;;;8.27;2.88;;;;;;;20.04;70.08;100630.00;4999364;28;20026;-59
2022/06/08 08:26:14;;;;;;;7.60;2.45;;;;;;;19.95;69.62;100631.94;5009399;28;20096;-58
2022/06/08 08:28:40;;;;;;;8.50;3.03;;;;;;;20.03;70.43;100631.00;5001601;28;20025;-58
2022/06/08 08:31:05;;;;;;;6.10;2.70;;;;;;;20.05;69.93;100636.22;5001782;28;20597;-58
2022/06/08 08:33:30;;;;;;;9.60;3.15;;;;;;;19.94;68.67;100635.66;4982344;28;20022;-59
2022/06/08 08:35:56;;;;;;;8.45;2.78;;;;;;;19.98;72.14;100633.44;5004699;28;20021;-58
2022/06/08 08:38:22;;;;;;;8.60;2.85;;;;;;;19.96;70.66;100622.81;4999255;28;20103;-58
2022/06/08 08:40:56;;;;;;;8.68;2.97;;;;;;;19.98;72.04;100632.59;4999315;28;20166;-59
2022/06/08 08:43:25;;;;;;;10.10;2.80;;;;;;;19.89;69.25;100629.97;4993928;28;20022;-58
2022/06/08 08:46:05;;;;;;;7.80;3.30;;;;;;;19.83;70.83;100635.28;4986545;28;20433;-58
2022/06/08 08:48:50;;;;;;;7.70;3.10;;;;;;;19.73;71.34;100632.81;4994581;28;20446;-59
2022/06/08 08:51:22;;;;;;;8.25;2.70;;;;;;;19.75;71.32;100631.66;4994638;28;20037;-58
2022/06/08 08:54:03;;;;;;;8.90;2.95;;;;;;;19.68;69.94;100627.13;4993856;28;20071;-57
2022/06/08 08:56:35;;;;;;;9.52;2.88;;;;;;;19.68;71.48;100633.34;4975422;28;20042;-58
2022/06/08 08:59:01;;;;;;;8.20;2.90;;;;;;;19.59;69.09;100637.16;4976138;28;20113;-58
2022/06/08 09:01:31;;;;;;;6.93;2.88;;;;;;;19.49;70.35;100631.19;4989247;28;20031;-58
2022/06/08 09:04:04;;;;;;;10.25;3.00;;;;;;;19.37;71.47;100637.00;4974986;28;20122;-57
2022/06/08 09:06:32;;;;;;;6.70;2.90;;;;;;;19.41;71.79;100637.47;4991310;28;20028;-58
2022/06/08 09:09:02;;;;;;;5.32;2.60;;;;;;;19.38;70.04;100641.38;4976481;28;20034;-58
2022/06/08 09:11:33;;;;;;;10.27;3.03;;;;;;;19.32;69.87;100634.00;4994445;28;20563;-58
2022/06/08 09:14:19;;;;;;;6.63;2.58;;;;;;;19.26;70.80;100642.78;4994057;28;20045;-58
2022/06/08 09:17:08;;;;;;;5.95;2.60;;;;;;;19.14;70.85;100642.38;4993892;28;20105;-58
2022/06/08 09:19:41;;;;;;;11.18;3.38;;;;;;;19.08;72.34;100640.38;4994250;28;20042;-58
2022/06/08 09:22:06;;;;;;;7.85;2.80;;;;;;;19.09;72.38;100636.69;4993978;28;20062;-58
2022/06/08 09:24:46;;;;;;;7.70;3.00;;;;;;;18.96;72.07;100631.88;4982726;28;20059;-58
2022/06/08 09:27:16;;;;;;;10.98;3.67;;;;;;;18.83;73.91;100637.84;4991734;28;20109;-59
2022/06/08 09:29:53;;;;;;;6.13;2.85;;;;;;;18.79;73.49;100636.50;4994378;28;20034;-58
2022/06/08 09:32:27;;;;;;;6.00;2.70;;;;;;;18.74;74.70;100630.81;4994037;28;20529;-58
2022/06/08 09:34:56;;;;;;;9.20;3.53;;;;;;;18.59;74.49;100633.41;4993570;28;20031;-58
2022/06/08 09:37:26;;;;;;;6.25;3.00;;;;;;;18.62;75.80;100632.22;5010180;28;20026;-58
2022/06/08 09:39:54;;;;;;;8.82;2.80;;;;;;;18.63;75.81;100637.41;5005917;28;20099;-59
2022/06/08 09:42:34;;;;;;;8.20;2.95;;;;;;;18.60;77.12;100637.78;5012732;28;20021;-59
2022/06/08 09:45:18;;;;;;;8.40;3.33;;;;;;;18.48;76.39;100637.34;5010047;28;20038;-59
2022/06/08 09:53:54;;;;;;;7.15;2.80;;;;;;;18.30;76.09;100636.69;4995521;28;20041;-57
2022/06/08 09:56:28;;;;;;;8.32;3.10;;;;;;;18.15;77.24;100643.81;5012717;28;20052;-58
2022/06/08 09:59:25;;;;;;;8.88;2.50;;;;;;;18.11;77.46;100643.31;4994618;28;20038;-58
2022/06/08 10:02:04;;;;;;;7.22;2.60;;;;;;;18.00;77.46;100644.53;4984011;28;20046;-58
2022/06/08 10:04:34;;;;;;;;;;;;;;;18.14;76.61;100647.53;4993848;28;20097;-57
2022/06/08 10:07:17;;;;;;;7.80;2.88;;;;;;;17.86;78.48;100650.56;4988560;28;19933;-57
2022/06/08 10:10:02;;;;;;;9.20;2.42;;;;;;;17.72;78.79;100650.25;5006888;28;20040;-59
2022/06/08 10:12:33;;;;;;;4.95;2.50;;;;;;;17.62;79.25;100646.03;4989876;28;20038;-58
2022/06/08 10:15:15;;;;;;;6.95;2.50;;;;;;;17.63;79.32;100645.88;4990141;28;20064;-59
2022/06/08 10:17:47;;;;;;;8.60;3.00;;;;;;;17.54;80.67;100647.72;4987782;28;20046;-58
2022/06/08 10:20:39;;;;;;;8.70;3.55;;;;;;;17.54;80.79;100652.28;4991643;28;20030;-58
2022/06/08 10:23:27;;;;;;;7.80;3.53;;;;;;;17.59;80.22;100639.16;4997612;28;20034;-57
2022/06/08 10:26:31;;;;;;;8.48;2.88;;;;;;;17.60;81.31;100648.88;4981041;28;20027;-58
2022/06/08 10:29:36;;;;;;;6.70;3.20;;;;;;;17.61;81.16;100647.91;4979206;28;20033;-58
2022/06/08 10:32:14;;;;;;;9.60;3.05;;;;;;;17.47;83.13;100646.72;4983916;28;20042;-58
2022/06/08 10:34:40;;;;;;;6.63;2.92;;;;;;;17.45;82.40;100645.19;4992324;28;20381;-59
2022/06/08 10:37:39;;;;;;;10.18;3.40;;;;;;;17.47;81.68;100645.88;4987325;28;20509;-59
2022/06/08 10:40:32;;;;;;;9.02;3.22;;;;;;;17.38;81.78;100640.50;4980413;28;20447;-59
2022/06/08 10:42:57;;;;;;;9.40;3.15;;;;;;;17.32;82.42;100635.81;4991073;28;20108;-57
2022/06/08 10:45:23;;;;;;;8.27;2.78;;;;;;;17.29;83.02;100636.16;4998609;28;20026;-58
2022/06/08 10:47:57;;;;;;;9.23;3.28;;;;;;;17.27;83.83;100637.31;4999243;28;20066;-57
2022/06/08 10:50:37;;;;;;;10.05;3.25;;;;;;;17.18;82.25;100639.16;4994713;28;20457;-58
2022/06/08 10:56:38;;;;;;;9.52;2.88;;;;;;;17.07;83.22;100626.03;4984986;28;20096;-58
2022/06/08 10:59:14;;;;;;;9.07;3.60;;;;;;;16.95;84.25;100630.88;4993182;28;20049;-58
2022/06/08 11:01:42;;;;;;;8.40;2.90;;;;;;;16.96;85.43;100629.91;4998967;28;20069;-57
2022/06/08 11:04:35;;;;;;;7.90;2.92;;;;;;;17.04;84.93;100637.09;5002840;28;20034;-58
2022/06/08 11:07:13;;;;;;;7.88;2.75;;;;;;;16.94;83.22;100627.38;4999340;28;20040;-58
2022/06/08 11:09:46;;;;;;;7.55;2.75;;;;;;;16.91;84.56;100621.50;4966883;28;20029;-58
2022/06/08 11:12:11;;;;;;;11.02;2.40;;;;;;;16.91;84.80;100624.19;4991772;28;20505;-58
2022/06/08 11:14:43;;;;;;;8.40;2.50;;;;;;;16.92;84.01;100620.47;4991872;28;20031;-59
2022/06/08 11:17:12;;;;;;;10.15;2.80;;;;;;;16.85;83.02;100619.47;4991008;28;20906;-58
2022/06/08 11:19:38;;;;;;;11.13;3.45;;;;;;;16.81;85.38;100614.41;4995627;28;20021;-56
2022/06/08 11:22:11;;;;;;;10.35;2.90;;;;;;;16.86;85.54;100610.44;5001161;28;20045;-57
2022/06/08 11:24:45;;;;;;;5.38;2.45;;;;;;;16.83;84.66;100606.19;4994070;28;20034;-58
2022/06/08 11:27:10;;;;;;;8.93;2.83;;;;;;;16.86;85.15;100603.22;4973371;28;20047;-58
2022/06/08 11:29:51;;;;;;;8.73;3.20;;;;;;;16.85;85.49;100609.56;4981370;28;20375;-58
2022/06/08 11:32:34;;;;;;;7.28;2.70;;;;;;;16.83;86.05;100604.34;4990155;28;20092;-59
2022/06/08 11:35:22;;;;;;;12.70;3.13;;;;;;;16.87;86.42;100593.31;4985537;28;20085;-59
2022/06/08 11:38:33;;;;;;;8.88;3.17;;;;;;;16.90;84.64;100587.63;4987702;28;20031;-57
2022/06/08 11:41:21;;;;;;;8.07;2.63;;;;;;;16.81;84.96;100586.75;4988826;28;20512;-58
2022/06/08 11:43:48;;;;;;;9.38;2.78;;;;;;;16.72;86.98;100580.53;4994886;28;20040;-57
2022/06/08 11:46:25;;;;;;;6.97;2.80;;;;;;;16.74;86.31;100585.72;4985909;28;20027;-59
2022/06/08 11:48:52;;;;;;;7.18;3.03;;;;;;;16.62;85.19;100575.31;4994010;28;20481;-58
2022/06/08 11:51:38;;;;;;;5.93;2.53;;;;;;;16.62;85.38;100571.75;4988428;28;20486;-58